aviador You're here:

K20U Decoded Metar

in
Report Time2018-05-26 08:15:00
UTC Time2018-05-26 08:16:09
Flight Rules vfr VFR
Wind240° at 07 kt
W.Rank240° ranks 15
Current wind is below 240° avg. (9.3)
Visibility9999 m
Phenomena:N/A
Clouds:N/A
Expected CloudBase > 800 ft AGL from Temp-Dew spread
CeilingNone
Temp14°C
Dew Point12°C (88% RH)
AAT12.1°C
QNH1010 hPa
Raw Report
K20U 260815Z AUTO 24007KT 10SM CLR 14/12 A2984 RMK AO2=

Extra information for K20U:More info

Social comments